sensor_id;sensor_type;location;lat;lon;timestamp;pressure;altitude;pressure_sealevel;temperature;humidity
31088;BME280;17745;55.914;37.554;2023-01-29T00:00:52;99303.09;;;-0.12;56.68
31088;BME280;17745;55.914;37.554;2023-01-29T00:03:20;99298.56;;;-0.10;56.45
31088;BME280;17745;55.914;37.554;2023-01-29T00:05:51;99307.97;;;-0.09;56.46
31088;BME280;17745;55.914;37.554;2023-01-29T00:08:23;99294.41;;;-0.04;56.42
31088;BME280;17745;55.914;37.554;2023-01-29T00:10:52;99296.22;;;-0.05;56.27
31088;BME280;17745;55.914;37.554;2023-01-29T00:13:22;99303.66;;;-0.02;56.33
31088;BME280;17745;55.914;37.554;2023-01-29T00:15:55;99303.03;;;-0.04;56.43
31088;BME280;17745;55.914;37.554;2023-01-29T00:18:27;99292.97;;;-0.07;56.26
31088;BME280;17745;55.914;37.554;2023-01-29T00:20:58;99294.59;;;-0.06;56.31
31088;BME280;17745;55.914;37.554;2023-01-29T00:23:27;99295.59;;;-0.07;56.46
31088;BME280;17745;55.914;37.554;2023-01-29T00:25:58;99296.75;;;-0.09;56.54
31088;BME280;17745;55.914;37.554;2023-01-29T00:28:28;99294.13;;;-0.09;56.57
31088;BME280;17745;55.914;37.554;2023-01-29T00:30:56;99292.78;;;-0.05;56.61
31088;BME280;17745;55.914;37.554;2023-01-29T00:33:24;99289.03;;;-0.03;56.47
31088;BME280;17745;55.914;37.554;2023-01-29T00:36:01;99287.88;;;0.00;56.27
31088;BME280;17745;55.914;37.554;2023-01-29T00:38:29;99287.13;;;0.06;55.97
31088;BME280;17745;55.914;37.554;2023-01-29T00:41:04;99277.50;;;0.07;55.96
31088;BME280;17745;55.914;37.554;2023-01-29T00:43:49;99261.09;;;0.06;56.08
31088;BME280;17745;55.914;37.554;2023-01-29T00:46:35;99259.91;;;0.09;56.12
31088;BME280;17745;55.914;37.554;2023-01-29T00:49:03;99265.41;;;0.14;56.08
31088;BME280;17745;55.914;37.554;2023-01-29T00:51:34;99255.25;;;0.19;56.10
31088;BME280;17745;55.914;37.554;2023-01-29T00:54:03;99258.16;;;0.31;55.98
31088;BME280;17745;55.914;37.554;2023-01-29T00:56:33;99260.22;;;0.36;55.76
31088;BME280;17745;55.914;37.554;2023-01-29T00:59:02;99256.88;;;0.42;55.67
31088;BME280;17745;55.914;37.554;2023-01-29T01:01:31;99260.09;;;0.44;55.53
31088;BME280;17745;55.914;37.554;2023-01-29T01:04:16;99257.69;;;0.42;55.61
31088;BME280;17745;55.914;37.554;2023-01-29T01:06:50;99257.88;;;0.41;55.74
31088;BME280;17745;55.914;37.554;2023-01-29T01:09:21;99252.53;;;0.49;55.45
31088;BME280;17745;55.914;37.554;2023-01-29T01:12:07;99259.81;;;0.54;55.31
31088;BME280;17745;55.914;37.554;2023-01-29T01:14:35;99259.63;;;0.55;55.20
31088;BME280;17745;55.914;37.554;2023-01-29T01:17:10;99259.25;;;0.59;55.14
31088;BME280;17745;55.914;37.554;2023-01-29T01:19:39;99264.56;;;0.50;55.00
31088;BME280;17745;55.914;37.554;2023-01-29T01:22:10;99269.13;;;0.41;54.95
31088;BME280;17745;55.914;37.554;2023-01-29T01:24:40;99256.81;;;0.35;54.96
31088;BME280;17745;55.914;37.554;2023-01-29T01:27:09;99260.41;;;0.34;54.61
31088;BME280;17745;55.914;37.554;2023-01-29T01:29:39;99259.34;;;0.28;54.82
31088;BME280;17745;55.914;37.554;2023-01-29T01:32:09;99249.50;;;0.09;54.31
31088;BME280;17745;55.914;37.554;2023-01-29T01:34:38;99248.63;;;0.02;54.14
31088;BME280;17745;55.914;37.554;2023-01-29T01:37:06;99255.34;;;-0.04;54.13
31088;BME280;17745;55.914;37.554;2023-01-29T01:39:37;99248.63;;;0.02;54.27
31088;BME280;17745;55.914;37.554;2023-01-29T01:42:08;99247.47;;;0.04;54.39
31088;BME280;17745;55.914;37.554;2023-01-29T01:44:54;99248.72;;;0.08;54.46
31088;BME280;17745;55.914;37.554;2023-01-29T01:47:28;99242.59;;;0.16;54.47
31088;BME280;17745;55.914;37.554;2023-01-29T01:50:06;99242.22;;;0.19;54.52
31088;BME280;17745;55.914;37.554;2023-01-29T01:52:38;99234.47;;;0.26;54.49
31088;BME280;17745;55.914;37.554;2023-01-29T01:55:12;99235.28;;;0.26;54.46
31088;BME280;17745;55.914;37.554;2023-01-29T01:57:42;99236.28;;;0.25;54.57
31088;BME280;17745;55.914;37.554;2023-01-29T02:00:18;99228.09;;;0.28;54.53
31088;BME280;17745;55.914;37.554;2023-01-29T02:02:50;99220.88;;;0.31;54.23
31088;BME280;17745;55.914;37.554;2023-01-29T02:05:36;99225.78;;;0.40;54.15
31088;BME280;17745;55.914;37.554;2023-01-29T02:08:27;99223.78;;;0.36;54.27
31088;BME280;17745;55.914;37.554;2023-01-29T02:11:16;99204.66;;;0.28;54.49
31088;BME280;17745;55.914;37.554;2023-01-29T02:13:45;99210.47;;;0.31;54.56
31088;BME280;17745;55.914;37.554;2023-01-29T02:16:24;99209.50;;;0.32;54.52
31088;BME280;17745;55.914;37.554;2023-01-29T02:18:54;99201.75;;;0.38;54.43
31088;BME280;17745;55.914;37.554;2023-01-29T02:21:40;99202.63;;;0.46;54.28
31088;BME280;17745;55.914;37.554;2023-01-29T02:24:57;99186.69;;;0.55;54.14
31088;BME280;17745;55.914;37.554;2023-01-29T02:30:44;99180.47;;;0.56;54.11
31088;BME280;17745;55.914;37.554;2023-01-29T02:33:20;99186.84;;;0.54;53.97
31088;BME280;17745;55.914;37.554;2023-01-29T02:35:58;99177.63;;;0.51;54.03
31088;BME280;17745;55.914;37.554;2023-01-29T02:38:37;99171.00;;;0.49;53.99
31088;BME280;17745;55.914;37.554;2023-01-29T02:41:14;99172.78;;;0.48;54.03
31088;BME280;17745;55.914;37.554;2023-01-29T02:43:45;99164.97;;;0.48;53.87
31088;BME280;17745;55.914;37.554;2023-01-29T02:46:21;99164.34;;;0.46;53.86
31088;BME280;17745;55.914;37.554;2023-01-29T02:48:56;99159.34;;;0.45;53.76
31088;BME280;17745;55.914;37.554;2023-01-29T02:51:29;99148.66;;;0.39;53.66
31088;BME280;17745;55.914;37.554;2023-01-29T02:54:02;99141.97;;;0.30;53.74
31088;BME280;17745;55.914;37.554;2023-01-29T02:56:37;99143.72;;;0.23;53.79
31088;BME280;17745;55.914;37.554;2023-01-29T02:59:09;99138.63;;;0.14;53.93
31088;BME280;17745;55.914;37.554;2023-01-29T03:04:38;99132.69;;;0.49;53.32
31088;BME280;17745;55.914;37.554;2023-01-29T03:07:14;99132.69;;;0.49;53.32
31088;BME280;17745;55.914;37.554;2023-01-29T03:10:04;99132.78;;;0.12;53.85
31088;BME280;17745;55.914;37.554;2023-01-29T03:12:39;99135.84;;;0.16;53.71
31088;BME280;17745;55.914;37.554;2023-01-29T03:15:11;99120.31;;;0.08;53.83
31088;BME280;17745;55.914;37.554;2023-01-29T03:17:46;99126.53;;;0.07;53.98
31088;BME280;17745;55.914;37.554;2023-01-29T03:20:25;99117.16;;;0.12;53.86
31088;BME280;17745;55.914;37.554;2023-01-29T03:23:00;99114.69;;;0.26;53.64
31088;BME280;17745;55.914;37.554;2023-01-29T03:25:32;99104.34;;;0.33;53.48
31088;BME280;17745;55.914;37.554;2023-01-29T03:28:20;99093.78;;;0.41;53.39
31088;BME280;17745;55.914;37.554;2023-01-29T03:31:10;99089.41;;;0.48;53.32
31088;BME280;17745;55.914;37.554;2023-01-29T03:33:59;99080.38;;;0.44;53.23
31088;BME280;17745;55.914;37.554;2023-01-29T03:36:33;99074.31;;;0.37;53.33
31088;BME280;17745;55.914;37.554;2023-01-29T03:39:05;99079.16;;;0.40;53.18
31088;BME280;17745;55.914;37.554;2023-01-29T03:41:39;99071.34;;;0.40;53.23
31088;BME280;17745;55.914;37.554;2023-01-29T03:44:15;99068.16;;;0.45;53.21
31088;BME280;17745;55.914;37.554;2023-01-29T03:46:51;99076.03;;;0.51;53.23
31088;BME280;17745;55.914;37.554;2023-01-29T03:49:30;99068.84;;;0.53;53.29
31088;BME280;17745;55.914;37.554;2023-01-29T03:52:13;99059.62;;;0.57;53.19
31088;BME280;17745;55.914;37.554;2023-01-29T03:54:53;99061.63;;;0.55;53.18
31088;BME280;17745;55.914;37.554;2023-01-29T03:57:30;99056.41;;;0.55;53.14
31088;BME280;17745;55.914;37.554;2023-01-29T04:00:05;99056.00;;;0.52;53.13
31088;BME280;17745;55.914;37.554;2023-01-29T04:02:47;99045.41;;;0.53;53.21
31088;BME280;17745;55.914;37.554;2023-01-29T04:05:21;99047.38;;;0.51;53.12
31088;BME280;17745;55.914;37.554;2023-01-29T04:07:58;99039.94;;;0.48;53.25
31088;BME280;17745;55.914;37.554;2023-01-29T04:10:30;99042.91;;;0.45;53.31
31088;BME280;17745;55.914;37.554;2023-01-29T04:13:05;99039.13;;;0.48;53.35
31088;BME280;17745;55.914;37.554;2023-01-29T04:15:41;99038.13;;;0.49;53.24
31088;BME280;17745;55.914;37.554;2023-01-29T04:18:10;99026.25;;;0.39;53.27
31088;BME280;17745;55.914;37.554;2023-01-29T04:20:44;99040.25;;;0.38;53.24
31088;BME280;17745;55.914;37.554;2023-01-29T04:26:56;99040.31;;;0.45;53.27
31088;BME280;17745;55.914;37.554;2023-01-29T04:29:43;99026.88;;;0.41;53.19
31088;BME280;17745;55.914;37.554;2023-01-29T04:32:24;99034.31;;;0.45;53.22
31088;BME280;17745;55.914;37.554;2023-01-29T04:35:29;99028.72;;;0.48;53.21
31088;BME280;17745;55.914;37.554;2023-01-29T04:38:10;99032.69;;;0.44;53.20
31088;BME280;17745;55.914;37.554;2023-01-29T04:40:54;99027.09;;;0.47;53.16
31088;BME280;17745;55.914;37.554;2023-01-29T04:43:58;99025.72;;;0.51;53.09
31088;BME280;17745;55.914;37.554;2023-01-29T04:47:18;99030.59;;;0.61;52.83
31088;BME280;17745;55.914;37.554;2023-01-29T04:50:23;99029.03;;;0.66;52.73
31088;BME280;17745;55.914;37.554;2023-01-29T04:53:03;99026.37;;;0.60;52.67
31088;BME280;17745;55.914;37.554;2023-01-29T04:55:42;99014.88;;;0.47;52.93
31088;BME280;17745;55.914;37.554;2023-01-29T04:58:25;99015.41;;;0.36;53.09
31088;BME280;17745;55.914;37.554;2023-01-29T05:01:05;99012.75;;;0.29;53.07
31088;BME280;17745;55.914;37.554;2023-01-29T05:03:48;99012.38;;;0.32;53.00
31088;BME280;17745;55.914;37.554;2023-01-29T05:06:37;99015.81;;;0.33;53.02
31088;BME280;17745;55.914;37.554;2023-01-29T05:09:24;99013.56;;;0.30;52.98
31088;BME280;17745;55.914;37.554;2023-01-29T05:11:57;99016.53;;;0.26;52.95
31088;BME280;17745;55.914;37.554;2023-01-29T05:14:34;99009.09;;;0.23;53.11
31088;BME280;17745;55.914;37.554;2023-01-29T05:18:04;99009.94;;;0.24;53.13
31088;BME280;17745;55.914;37.554;2023-01-29T05:20:40;99004.28;;;0.20;53.19
31088;BME280;17745;55.914;37.554;2023-01-29T05:23:31;98997.28;;;0.21;53.18
31088;BME280;17745;55.914;37.554;2023-01-29T05:26:12;99014.09;;;0.18;53.18
31088;BME280;17745;55.914;37.554;2023-01-29T05:29:01;99019.91;;;0.20;53.13
31088;BME280;17745;55.914;37.554;2023-01-29T05:31:36;99015.94;;;0.24;53.15
31088;BME280;17745;55.914;37.554;2023-01-29T05:34:51;99009.16;;;0.30;52.98
31088;BME280;17745;55.914;37.554;2023-01-29T05:37:53;99012.94;;;0.27;53.05
31088;BME280;17745;55.914;37.554;2023-01-29T05:40:42;99016.75;;;0.25;53.03
31088;BME280;17745;55.914;37.554;2023-01-29T05:43:16;99017.91;;;0.22;53.02
31088;BME280;17745;55.914;37.554;2023-01-29T05:45:56;99010.66;;;0.18;53.18
31088;BME280;17745;55.914;37.554;2023-01-29T05:48:59;99005.28;;;0.19;53.29
31088;BME280;17745;55.914;37.554;2023-01-29T05:55:31;99010.59;;;0.33;52.95
31088;BME280;17745;55.914;37.554;2023-01-29T05:58:09;99011.19;;;0.35;53.00
31088;BME280;17745;55.914;37.554;2023-01-29T06:00:54;99005.56;;;0.31;53.04
31088;BME280;17745;55.914;37.554;2023-01-29T06:03:35;99010.37;;;0.34;52.99
31088;BME280;17745;55.914;37.554;2023-01-29T06:06:06;99011.44;;;0.40;52.79
31088;BME280;17745;55.914;37.554;2023-01-29T06:08:40;99008.81;;;0.40;52.95
31088;BME280;17745;55.914;37.554;2023-01-29T06:11:20;99014.25;;;0.45;52.75
31088;BME280;17745;55.914;37.554;2023-01-29T06:13:54;98997.88;;;0.51;52.61
31088;BME280;17745;55.914;37.554;2023-01-29T06:16:47;98990.28;;;0.56;52.49
31088;BME280;17745;55.914;37.554;2023-01-29T06:19:35;98981.28;;;0.59;52.35
31088;BME280;17745;55.914;37.554;2023-01-29T06:22:06;98974.22;;;0.53;52.43
31088;BME280;17745;55.914;37.554;2023-01-29T06:24:39;98981.88;;;0.54;52.53
31088;BME280;17745;55.914;37.554;2023-01-29T06:27:23;98979.06;;;0.56;52.43
31088;BME280;17745;55.914;37.554;2023-01-29T06:30:31;98979.91;;;0.63;52.28
31088;BME280;17745;55.914;37.554;2023-01-29T06:33:02;98975.50;;;0.64;52.12
31088;BME280;17745;55.914;37.554;2023-01-29T06:35:34;98981.53;;;0.71;52.15
31088;BME280;17745;55.914;37.554;2023-01-29T06:38:07;98977.56;;;0.75;51.96
31088;BME280;17745;55.914;37.554;2023-01-29T06:40:41;98977.34;;;0.77;51.88
31088;BME280;17745;55.914;37.554;2023-01-29T06:46:23;98966.19;;;0.83;51.67
31088;BME280;17745;55.914;37.554;2023-01-29T06:49:12;98952.53;;;0.88;51.57
31088;BME280;17745;55.914;37.554;2023-01-29T06:51:53;98950.97;;;0.93;51.64
31088;BME280;17745;55.914;37.554;2023-01-29T06:55:13;98952.78;;;0.99;51.65
31088;BME280;17745;55.914;37.554;2023-01-29T06:57:58;98950.81;;;1.08;51.48
31088;BME280;17745;55.914;37.554;2023-01-29T07:00:46;98936.75;;;1.09;51.34
31088;BME280;17745;55.914;37.554;2023-01-29T07:04:15;98935.41;;;1.13;51.39
31088;BME280;17745;55.914;37.554;2023-01-29T07:06:57;98929.97;;;1.22;51.37
31088;BME280;17745;55.914;37.554;2023-01-29T07:14:07;98935.59;;;1.32;51.04
31088;BME280;17745;55.914;37.554;2023-01-29T07:17:11;98924.81;;;1.35;51.25
31088;BME280;17745;55.914;37.554;2023-01-29T07:20:12;98927.59;;;2.08;50.15
31088;BME280;17745;55.914;37.554;2023-01-29T07:23:09;98927.59;;;2.08;50.15
31088;BME280;17745;55.914;37.554;2023-01-29T08:01:03;98896.31;;;1.54;49.56
31088;BME280;17745;55.914;37.554;2023-01-29T08:03:55;98891.88;;;1.54;49.49
31088;BME280;17745;55.914;37.554;2023-01-29T08:06:49;98889.88;;;1.63;49.47
31088;BME280;17745;55.914;37.554;2023-01-29T08:09:34;98891.50;;;1.71;49.48
31088;BME280;17745;55.914;37.554;2023-01-29T08:12:25;98887.06;;;1.85;48.97
31088;BME280;17745;55.914;37.554;2023-01-29T08:15:06;98893.47;;;1.96;49.14
31088;BME280;17745;55.914;37.554;2023-01-29T08:21:04;98889.84;;;2.04;48.85
31088;BME280;17745;55.914;37.554;2023-01-29T08:27:20;98885.41;;;2.11;48.57
31088;BME280;17745;55.914;37.554;2023-01-29T08:29:55;98888.41;;;2.14;48.63
31088;BME280;17745;55.914;37.554;2023-01-29T08:32:39;98886.41;;;2.10;48.60
31088;BME280;17745;55.914;37.554;2023-01-29T08:46:07;98887.56;;;2.27;48.26
31088;BME280;17745;55.914;37.554;2023-01-29T08:48:39;98883.38;;;2.20;48.04
31088;BME280;17745;55.914;37.554;2023-01-29T08:51:54;98893.22;;;2.18;47.83
31088;BME280;17745;55.914;37.554;2023-01-29T08:55:04;98885.19;;;2.19;47.93
31088;BME280;17745;55.914;37.554;2023-01-29T08:58:33;98885.38;;;2.24;47.69
31088;BME280;17745;55.914;37.554;2023-01-29T09:13:21;98890.91;;;1.76;48.08
31088;BME280;17745;55.914;37.554;2023-01-29T09:20:13;98872.44;;;1.57;48.54
31088;BME280;17745;55.914;37.554;2023-01-29T09:27:23;98857.37;;;1.52;48.43
31088;BME280;17745;55.914;37.554;2023-01-29T09:31:14;98849.13;;;1.62;48.43
31088;BME280;17745;55.914;37.554;2023-01-29T09:41:57;98854.12;;;1.70;48.12
31088;BME280;17745;55.914;37.554;2023-01-29T09:45:20;98850.75;;;1.63;48.14
31088;BME280;17745;55.914;37.554;2023-01-29T09:49:05;98845.69;;;1.82;47.96
31088;BME280;17745;55.914;37.554;2023-01-29T09:52:49;98853.75;;;1.74;47.79
31088;BME280;17745;55.914;37.554;2023-01-29T09:56:18;98828.03;;;1.77;47.95
31088;BME280;17745;55.914;37.554;2023-01-29T09:59:59;98826.41;;;1.90;47.63
31088;BME280;17745;55.914;37.554;2023-01-29T11:45:13;98683.19;;;1.93;47.18
31088;BME280;17745;55.914;37.554;2023-01-29T11:48:19;98683.19;;;1.93;47.23
31088;BME280;17745;55.914;37.554;2023-01-29T11:52:08;98686.22;;;1.90;47.36
31088;BME280;17745;55.914;37.554;2023-01-29T15:02:48;98584.00;;;1.02;51.95
31088;BME280;17745;55.914;37.554;2023-01-29T15:06:15;98584.84;;;1.03;52.03
31088;BME280;17745;55.914;37.554;2023-01-29T17:02:48;98546.97;;;0.87;55.67
31088;BME280;17745;55.914;37.554;2023-01-29T17:05:50;98543.75;;;0.84;55.71
31088;BME280;17745;55.914;37.554;2023-01-29T17:08:25;98535.16;;;0.84;55.69
31088;BME280;17745;55.914;37.554;2023-01-29T17:11:30;98541.38;;;0.83;55.77
31088;BME280;17745;55.914;37.554;2023-01-29T17:14:50;98532.56;;;0.84;55.84
31088;BME280;17745;55.914;37.554;2023-01-29T17:21:14;98529.31;;;0.89;55.67
31088;BME280;17745;55.914;37.554;2023-01-29T17:24:11;98525.69;;;0.90;55.65
31088;BME280;17745;55.914;37.554;2023-01-29T17:27:15;98513.06;;;0.93;55.57
31088;BME280;17745;55.914;37.554;2023-01-29T17:30:02;98526.09;;;0.93;55.51
31088;BME280;17745;55.914;37.554;2023-01-29T17:32:49;98538.72;;;0.96;55.37
31088;BME280;17745;55.914;37.554;2023-01-29T17:35:56;98518.09;;;0.95;55.43
31088;BME280;17745;55.914;37.554;2023-01-29T18:01:15;98523.50;;;0.93;55.29
31088;BME280;17745;55.914;37.554;2023-01-29T18:08:16;98513.25;;;0.92;55.28
31088;BME280;17745;55.914;37.554;2023-01-29T18:11:25;98525.69;;;0.96;55.03
31088;BME280;17745;55.914;37.554;2023-01-29T18:14:42;98516.50;;;0.87;55.19
31088;BME280;17745;55.914;37.554;2023-01-29T18:17:51;98518.88;;;0.89;55.12
31088;BME280;17745;55.914;37.554;2023-01-29T18:20:27;98512.03;;;1.01;54.92
31088;BME280;17745;55.914;37.554;2023-01-29T18:23:25;98509.59;;;1.06;54.78
31088;BME280;17745;55.914;37.554;2023-01-29T18:26:42;98510.00;;;1.03;54.79
31088;BME280;17745;55.914;37.554;2023-01-29T18:29:27;98507.41;;;1.03;54.82
31088;BME280;17745;55.914;37.554;2023-01-29T18:32:16;98500.41;;;1.04;54.81
31088;BME280;17745;55.914;37.554;2023-01-29T18:35:19;98503.78;;;1.04;54.82
31088;BME280;17745;55.914;37.554;2023-01-29T18:38:07;98494.78;;;1.07;54.77
31088;BME280;17745;55.914;37.554;2023-01-29T18:40:51;98503.97;;;1.09;54.58
31088;BME280;17745;55.914;37.554;2023-01-29T18:43:39;98495.97;;;1.04;54.71
31088;BME280;17745;55.914;37.554;2023-01-29T18:46:33;98489.97;;;1.04;54.74
31088;BME280;17745;55.914;37.554;2023-01-29T18:49:23;98492.34;;;1.05;54.81
31088;BME280;17745;55.914;37.554;2023-01-29T21:54:38;98366.34;;;1.18;55.18
31088;BME280;17745;55.914;37.554;2023-01-29T22:00:53;98354.59;;;1.09;55.29
31088;BME280;17745;55.914;37.554;2023-01-29T22:03:46;98357.38;;;1.07;55.45
31088;BME280;17745;55.914;37.554;2023-01-29T22:06:24;98366.81;;;1.08;55.51
31088;BME280;17745;55.914;37.554;2023-01-29T22:09:00;98362.56;;;1.14;55.49
31088;BME280;17745;55.914;37.554;2023-01-29T22:11:46;98353.34;;;1.11;55.47
31088;BME280;17745;55.914;37.554;2023-01-29T22:14:29;98348.59;;;1.02;55.71
31088;BME280;17745;55.914;37.554;2023-01-29T22:17:02;98358.50;;;0.93;55.99
31088;BME280;17745;55.914;37.554;2023-01-29T22:19:49;98345.28;;;0.88;56.07
31088;BME280;17745;55.914;37.554;2023-01-29T22:22:20;98335.44;;;0.90;56.05
31088;BME280;17745;55.914;37.554;2023-01-29T22:24:58;98333.06;;;0.88;56.15
31088;BME280;17745;55.914;37.554;2023-01-29T22:27:32;98327.03;;;0.88;56.26
31088;BME280;17745;55.914;37.554;2023-01-29T22:30:03;98324.66;;;0.86;56.29
31088;BME280;17745;55.914;37.554;2023-01-29T22:32:33;98321.25;;;0.85;56.42
31088;BME280;17745;55.914;37.554;2023-01-29T22:35:06;98316.03;;;0.85;56.32
31088;BME280;17745;55.914;37.554;2023-01-29T22:37:35;98304.00;;;0.84;56.44
31088;BME280;17745;55.914;37.554;2023-01-29T22:40:11;98295.34;;;0.91;56.44
31088;BME280;17745;55.914;37.554;2023-01-29T22:42:45;98291.09;;;0.96;56.31
31088;BME280;17745;55.914;37.554;2023-01-29T22:45:16;98283.06;;;0.98;56.31
31088;BME280;17745;55.914;37.554;2023-01-29T22:47:48;98281.47;;;0.97;56.30
31088;BME280;17745;55.914;37.554;2023-01-29T22:50:22;98283.06;;;0.98;56.45
31088;BME280;17745;55.914;37.554;2023-01-29T22:52:50;98284.09;;;0.97;56.45
31088;BME280;17745;55.914;37.554;2023-01-29T22:55:21;98277.87;;;0.98;56.43
31088;BME280;17745;55.914;37.554;2023-01-29T22:57:52;98290.75;;;0.93;56.47
31088;BME280;17745;55.914;37.554;2023-01-29T23:00:21;98273.47;;;0.92;56.66
31088;BME280;17745;55.914;37.554;2023-01-29T23:02:52;98276.91;;;0.92;56.70
31088;BME280;17745;55.914;37.554;2023-01-29T23:05:33;98277.91;;;0.91;56.79
31088;BME280;17745;55.914;37.554;2023-01-29T23:08:02;98277.47;;;0.94;56.74
31088;BME280;17745;55.914;37.554;2023-01-29T23:10:42;98266.84;;;0.96;56.76
31088;BME280;17745;55.914;37.554;2023-01-29T23:13:32;98268.03;;;1.00;56.77
31088;BME280;17745;55.914;37.554;2023-01-29T23:16:20;98263.00;;;0.98;56.74
31088;BME280;17745;55.914;37.554;2023-01-29T23:18:58;98255.84;;;0.94;56.92
31088;BME280;17745;55.914;37.554;2023-01-29T23:21:48;98252.62;;;0.92;57.07
31088;BME280;17745;55.914;37.554;2023-01-29T23:24:25;98246.22;;;0.94;57.02
31088;BME280;17745;55.914;37.554;2023-01-29T23:27:16;98245.63;;;0.92;56.94
31088;BME280;17745;55.914;37.554;2023-01-29T23:29:48;98241.63;;;0.90;57.10
31088;BME280;17745;55.914;37.554;2023-01-29T23:32:19;98239.78;;;0.97;57.10
31088;BME280;17745;55.914;37.554;2023-01-29T23:34:48;98240.13;;;1.00;56.96
31088;BME280;17745;55.914;37.554;2023-01-29T23:37:17;98236.34;;;0.96;56.94
31088;BME280;17745;55.914;37.554;2023-01-29T23:39:48;98224.56;;;0.94;57.00
31088;BME280;17745;55.914;37.554;2023-01-29T23:42:30;98224.19;;;0.90;57.04
31088;BME280;17745;55.914;37.554;2023-01-29T23:45:03;98227.38;;;0.92;57.05
31088;BME280;17745;55.914;37.554;2023-01-29T23:47:32;98226.56;;;0.92;57.17
31088;BME280;17745;55.914;37.554;2023-01-29T23:50:00;98224.78;;;0.92;57.04
31088;BME280;17745;55.914;37.554;2023-01-29T23:52:29;98207.34;;;0.93;56.97
31088;BME280;17745;55.914;37.554;2023-01-29T23:55:05;98209.87;;;0.99;56.91
31088;BME280;17745;55.914;37.554;2023-01-29T23:57:38;98211.47;;;1.00;56.99
